createdAt,value
2022-11-17T00:00:30.189Z,75.81
2022-11-17T00:02:57.079Z,73.16
2022-11-17T00:05:24.182Z,74.87
2022-11-17T00:07:51.194Z,74.94
2022-11-17T00:10:18.402Z,72.41
2022-11-17T00:13:14.268Z,72.66
2022-11-17T00:15:43.735Z,72.12
2022-11-17T00:18:29.102Z,70.19
2022-11-17T00:21:14.723Z,70.65
2022-11-17T00:23:47.926Z,70.06
2022-11-17T00:26:16.639Z,71.46
2022-11-17T00:28:44.030Z,72.87
2022-11-17T00:31:33.241Z,70.32
2022-11-17T00:34:06.912Z,70.31
2022-11-17T00:36:34.932Z,67.80
2022-11-17T00:39:02.187Z,67.01
2022-11-17T00:41:29.038Z,65.25
2022-11-17T00:43:55.881Z,63.93
2022-11-17T00:46:23.141Z,66.79
2022-11-17T00:48:50.219Z,72.11
2022-11-17T00:51:17.129Z,72.94
2022-11-17T00:53:44.026Z,76.17
2022-11-17T00:56:11.094Z,80.36
2022-11-17T00:58:38.168Z,79.71
2022-11-17T01:01:05.341Z,81.85
2022-11-17T01:03:32.410Z,80.18
2022-11-17T01:06:08.385Z,78.23
2022-11-17T01:08:35.635Z,81.19
2022-11-17T01:11:14.638Z,79.58
2022-11-17T01:13:42.593Z,78.87
2022-11-17T01:16:15.761Z,79.56
2022-11-17T01:18:43.834Z,81.40
2022-11-17T01:21:19.299Z,83.84
2022-11-17T01:23:47.458Z,80.29
2022-11-17T01:26:16.652Z,79.47
2022-11-17T01:28:43.861Z,83.26
2022-11-17T01:31:15.797Z,84.66
2022-11-17T01:33:42.842Z,84.69
2022-11-17T01:36:23.210Z,84.45
2022-11-17T01:38:50.284Z,83.89
2022-11-17T01:41:27.401Z,84.72
2022-11-17T01:43:59.632Z,84.85
2022-11-17T01:46:39.016Z,84.56
2022-11-17T01:49:10.344Z,84.24
2022-11-17T01:51:40.985Z,86.90
2022-11-17T01:54:09.400Z,85.71
2022-11-17T01:56:40.303Z,85.18
2022-11-17T01:59:10.624Z,83.53
2022-11-17T02:01:55.852Z,84.78
2022-11-17T02:04:28.445Z,86.09
2022-11-17T02:07:16.130Z,88.58
2022-11-17T02:09:44.168Z,87.59
2022-11-17T02:12:13.232Z,89.63
2022-11-17T02:14:40.533Z,87.97
2022-11-17T02:17:13.783Z,86.94
2022-11-17T02:19:42.697Z,87.50
2022-11-17T02:22:28.197Z,89.33
2022-11-17T02:25:25.722Z,87.46
2022-11-17T02:28:17.585Z,87.51
2022-11-17T02:31:04.110Z,85.61
2022-11-17T02:33:37.994Z,86.22
2022-11-17T02:36:31.542Z,86.99
2022-11-17T02:39:12.221Z,85.97
2022-11-17T02:41:50.859Z,84.47
2022-11-17T02:44:37.920Z,84.62
2022-11-17T02:47:05.419Z,85.12
2022-11-17T02:49:43.333Z,85.62
2022-11-17T02:52:10.227Z,84.80
2022-11-17T02:54:37.122Z,85.74
2022-11-17T02:57:04.052Z,86.53
2022-11-17T02:59:47.102Z,87.33
2022-11-17T03:02:25.947Z,85.37
2022-11-17T03:05:34.713Z,85.90
2022-11-17T03:08:33.355Z,86.99
2022-11-17T03:11:04.945Z,87.09
2022-11-17T03:13:51.961Z,87.03
2022-11-17T03:16:24.807Z,85.17
2022-11-17T03:19:14.111Z,83.93
2022-11-17T03:21:40.940Z,85.71
2022-11-17T03:24:18.592Z,85.14
2022-11-17T03:26:53.458Z,87.37
2022-11-17T03:29:22.019Z,86.70
2022-11-17T03:31:51.376Z,85.36
2022-11-17T03:34:21.357Z,84.29
2022-11-17T03:36:52.955Z,81.79
2022-11-17T03:39:26.459Z,82.61
2022-11-17T03:41:59.096Z,83.00
2022-11-17T03:44:27.624Z,81.84
2022-11-17T03:46:56.028Z,83.08
2022-11-17T03:49:35.538Z,79.82
2022-11-17T03:52:02.498Z,79.95
2022-11-17T03:54:29.396Z,82.06
2022-11-17T03:57:07.389Z,80.66
2022-11-17T03:59:54.307Z,79.11
2022-11-17T04:02:22.548Z,79.85
2022-11-17T04:05:07.464Z,78.44
2022-11-17T04:07:44.780Z,78.89
2022-11-17T04:10:15.587Z,81.20
2022-11-17T04:13:01.371Z,81.80
2022-11-17T04:15:47.224Z,80.20
2022-11-17T04:18:14.549Z,79.81
2022-11-17T04:20:42.000Z,84.06
2022-11-17T04:23:12.283Z,86.98
2022-11-17T04:26:02.633Z,84.04
2022-11-17T04:28:37.066Z,83.55
2022-11-17T04:31:09.055Z,80.78
2022-11-17T04:33:36.922Z,81.92
2022-11-17T04:36:04.843Z,82.68
2022-11-17T04:38:31.741Z,76.36
2022-11-17T04:41:22.611Z,79.00
2022-11-17T04:43:49.494Z,78.79
2022-11-17T04:46:17.363Z,79.09
2022-11-17T04:48:44.453Z,82.38
2022-11-17T04:51:12.004Z,76.65
2022-11-17T04:53:39.102Z,73.37
2022-11-17T04:56:06.828Z,72.75
2022-11-17T04:58:33.758Z,76.30
2022-11-17T05:01:12.631Z,71.71
2022-11-17T05:03:40.372Z,76.04
2022-11-17T05:06:07.802Z,72.51
2022-11-17T05:08:37.100Z,73.53
2022-11-17T05:11:23.309Z,72.83
2022-11-17T05:13:51.349Z,73.30
2022-11-17T05:16:37.874Z,80.90
2022-11-17T05:19:05.902Z,81.31
2022-11-17T05:21:33.196Z,76.39
2022-11-17T05:24:00.115Z,78.76
2022-11-17T05:26:29.136Z,79.92
2022-11-17T05:28:57.648Z,76.92
2022-11-17T05:31:25.700Z,76.84
2022-11-17T05:33:53.415Z,77.56
2022-11-17T05:36:20.837Z,78.29
2022-11-17T05:38:48.542Z,81.47
2022-11-17T05:41:16.372Z,81.36
2022-11-17T05:43:43.990Z,80.35
2022-11-17T05:46:11.181Z,79.62
2022-11-17T05:48:38.185Z,79.25
2022-11-17T05:51:05.394Z,77.86
2022-11-17T05:53:32.678Z,76.80
2022-11-17T05:56:41.221Z,77.24
2022-11-17T05:59:22.057Z,77.30
2022-11-17T06:02:03.575Z,76.76
2022-11-17T06:04:31.003Z,75.29
2022-11-17T06:06:59.484Z,75.05
2022-11-17T06:09:33.492Z,70.85
2022-11-17T06:12:05.607Z,73.88
2022-11-17T06:14:34.372Z,73.18
2022-11-17T06:17:06.535Z,72.48
2022-11-17T06:19:42.168Z,73.18
2022-11-17T06:22:13.547Z,71.21
2022-11-17T06:24:42.321Z,72.52
2022-11-17T06:27:11.019Z,72.54
2022-11-17T06:29:43.688Z,72.17
2022-11-17T06:32:12.410Z,71.54
2022-11-17T06:34:39.316Z,69.56
2022-11-17T06:37:06.156Z,67.25
2022-11-17T06:39:33.118Z,68.91
2022-11-17T06:41:59.967Z,66.87
2022-11-17T06:44:26.815Z,64.86
2022-11-17T06:46:53.666Z,66.59
2022-11-17T06:49:20.551Z,64.54
2022-11-17T06:51:47.400Z,66.98
2022-11-17T06:54:15.055Z,68.04
2022-11-17T06:56:42.582Z,67.89
2022-11-17T06:59:09.581Z,70.13
2022-11-17T07:01:37.876Z,71.26
2022-11-17T07:04:05.163Z,70.55
2022-11-17T07:06:32.414Z,73.25
2022-11-17T07:08:59.413Z,74.81
2022-11-17T07:11:26.399Z,73.40
2022-11-17T07:13:53.354Z,74.78
2022-11-17T07:16:23.877Z,73.76
2022-11-17T07:18:52.559Z,74.14
2022-11-17T07:21:19.501Z,73.55
2022-11-17T07:23:46.896Z,75.21
2022-11-17T07:26:14.524Z,74.06
2022-11-17T07:28:41.587Z,77.14
2022-11-17T07:31:09.476Z,75.81
2022-11-17T07:33:37.100Z,75.14
2022-11-17T07:36:09.897Z,74.08
2022-11-17T07:38:38.748Z,72.43
2022-11-17T07:41:07.276Z,73.63
2022-11-17T07:43:35.271Z,70.72
2022-11-17T07:46:07.243Z,70.45
2022-11-17T07:48:34.678Z,72.48
2022-11-17T07:51:03.493Z,71.14
2022-11-17T07:53:31.852Z,70.20
2022-11-17T07:56:03.826Z,70.79
2022-11-17T07:58:31.074Z,67.73
2022-11-17T08:00:58.079Z,65.67
2022-11-17T08:03:25.077Z,65.49
2022-11-17T08:05:53.585Z,67.54
2022-11-17T08:08:20.494Z,66.46
2022-11-17T08:10:47.446Z,64.58
2022-11-17T08:13:15.691Z,67.41
2022-11-17T08:15:42.593Z,64.96
2022-11-17T08:18:09.499Z,65.75
2022-11-17T08:20:37.463Z,65.46
2022-11-17T08:23:04.409Z,61.80
2022-11-17T08:25:31.342Z,61.98
2022-11-17T08:27:58.634Z,60.04
2022-11-17T08:30:44.582Z,58.85
2022-11-17T08:33:11.521Z,56.01
2022-11-17T08:35:38.460Z,51.73
2022-11-17T08:38:05.513Z,53.08
2022-11-17T08:40:43.730Z,50.07
2022-11-17T08:43:11.118Z,50.07
2022-11-17T08:45:38.263Z,51.15
2022-11-17T08:48:07.626Z,53.99
2022-11-17T08:57:17.577Z,59.68
2022-11-17T08:59:47.677Z,59.68
2022-11-17T09:02:14.851Z,63.69
2022-11-17T09:04:41.873Z,63.94
2022-11-17T09:07:08.991Z,62.40
2022-11-17T09:09:37.026Z,62.11
2022-11-17T09:12:04.115Z,66.00
2022-11-17T09:14:31.775Z,64.63
2022-11-17T09:16:58.717Z,65.66
2022-11-17T09:19:44.256Z,63.95
2022-11-17T09:22:11.227Z,64.20
2022-11-17T09:24:38.473Z,63.26
2022-11-17T09:27:05.481Z,61.03
2022-11-17T09:29:32.424Z,62.29
2022-11-17T09:31:59.278Z,61.69
2022-11-17T09:34:26.284Z,62.27
2022-11-17T09:36:53.285Z,62.25
2022-11-17T09:39:22.432Z,62.27
2022-11-17T09:41:51.487Z,62.14
2022-11-17T09:44:42.234Z,62.72
2022-11-17T09:47:33.019Z,63.70
2022-11-17T09:50:13.912Z,61.66
2022-11-17T09:53:09.833Z,62.79
2022-11-17T10:01:04.406Z,64.46
2022-11-17T10:03:33.122Z,62.02
2022-11-17T10:06:02.075Z,64.35
2022-11-17T10:08:35.090Z,64.16
2022-11-17T10:11:21.907Z,65.09
2022-11-17T10:13:49.884Z,65.57
2022-11-17T10:16:16.783Z,63.10
2022-11-17T10:18:43.727Z,61.93
2022-11-17T10:21:10.735Z,60.44
2022-11-17T10:23:46.192Z,61.41
2022-11-17T10:26:15.219Z,64.49
2022-11-17T10:28:42.251Z,61.18
2022-11-17T10:31:15.342Z,62.46
2022-11-17T10:33:44.543Z,65.88
2022-11-17T10:36:21.801Z,64.06
2022-11-17T10:38:54.349Z,65.90
2022-11-17T10:41:25.557Z,64.68
2022-11-17T10:44:06.856Z,66.27
2022-11-17T10:46:45.033Z,65.93
2022-11-17T10:49:34.468Z,66.26
2022-11-17T10:52:11.968Z,69.64
2022-11-17T10:54:38.967Z,65.04
2022-11-17T10:57:25.681Z,63.24
2022-11-17T10:59:56.912Z,61.73
2022-11-17T11:02:37.897Z,63.56
2022-11-17T11:05:08.265Z,63.74
2022-11-17T11:07:35.613Z,62.47
2022-11-17T11:10:08.685Z,63.11
2022-11-17T11:12:54.232Z,63.82
2022-11-17T11:15:25.674Z,65.85
2022-11-17T11:17:52.559Z,68.21
2022-11-17T11:20:22.800Z,63.13
2022-11-17T11:22:52.956Z,61.50
2022-11-17T11:25:37.013Z,61.96
2022-11-17T11:28:12.054Z,60.63
2022-11-17T11:30:47.729Z,61.15
2022-11-17T11:33:17.497Z,62.90
2022-11-17T11:36:15.277Z,61.47
2022-11-17T11:38:53.014Z,61.87
2022-11-17T11:41:42.872Z,60.79
2022-11-17T11:44:33.847Z,60.21
2022-11-17T11:47:36.199Z,61.06
2022-11-17T11:50:13.163Z,60.29
2022-11-17T11:52:44.984Z,60.07
2022-11-17T11:55:31.279Z,60.26
2022-11-17T11:58:01.074Z,58.60
2022-11-17T12:00:27.980Z,56.77
2022-11-17T12:03:20.816Z,56.05
2022-11-17T12:05:59.952Z,57.00
2022-11-17T12:08:36.519Z,60.11
2022-11-17T12:11:27.510Z,59.00
2022-11-17T12:13:54.793Z,57.96
2022-11-17T12:16:47.984Z,57.98
2022-11-17T12:19:57.289Z,55.47
2022-11-17T12:22:30.092Z,57.61
2022-11-17T12:25:17.241Z,54.81
2022-11-17T12:27:49.942Z,56.16
2022-11-17T12:30:57.390Z,54.54
2022-11-17T12:33:24.777Z,55.38
2022-11-17T12:36:37.532Z,54.36
2022-11-17T12:39:08.803Z,53.35
2022-11-17T12:42:00.153Z,52.93
2022-11-17T12:44:39.553Z,53.30
2022-11-17T12:47:22.345Z,51.94
2022-11-17T12:50:07.506Z,52.24
2022-11-17T12:52:43.779Z,53.07
2022-11-17T12:55:22.827Z,52.82
2022-11-17T12:57:58.521Z,51.88
2022-11-17T13:00:28.139Z,52.29
2022-11-17T13:03:05.355Z,52.00
2022-11-17T13:05:32.050Z,53.43
2022-11-17T13:08:25.454Z,52.10
2022-11-17T13:11:03.914Z,54.69
2022-11-17T13:13:30.837Z,51.85
2022-11-17T13:16:00.177Z,50.88
2022-11-17T13:18:33.111Z,51.42
2022-11-17T13:21:01.208Z,52.50
2022-11-17T13:23:30.403Z,53.32
2022-11-17T13:26:10.596Z,52.99
2022-11-17T13:28:37.975Z,53.65
2022-11-17T13:31:04.933Z,54.92
2022-11-17T13:33:38.432Z,55.27
2022-11-17T13:36:15.267Z,55.44
2022-11-17T13:38:54.885Z,56.48
2022-11-17T13:41:22.781Z,58.04
2022-11-17T13:43:50.690Z,58.09
2022-11-17T13:46:18.353Z,57.84
2022-11-17T13:48:49.718Z,58.43
2022-11-17T13:51:22.954Z,60.77
2022-11-17T13:53:59.698Z,58.92
2022-11-17T13:56:31.341Z,61.63
2022-11-17T13:59:01.231Z,59.13
2022-11-17T14:01:29.670Z,63.04
2022-11-17T14:04:20.208Z,59.95
2022-11-17T14:07:01.885Z,59.18
2022-11-17T14:09:31.121Z,62.05
2022-11-17T14:11:58.727Z,60.95
2022-11-17T14:14:33.503Z,59.37
2022-11-17T14:17:18.278Z,60.33
2022-11-17T14:23:13.838Z,61.20
2022-11-17T14:25:43.269Z,59.21
2022-11-17T14:28:21.595Z,58.24
2022-11-17T14:30:55.973Z,57.73
2022-11-17T14:33:23.712Z,57.74
2022-11-17T14:35:53.881Z,58.14
2022-11-17T14:38:21.245Z,56.97
2022-11-17T14:40:52.659Z,58.09
2022-11-17T14:43:21.081Z,56.69
2022-11-17T14:45:48.936Z,55.94
2022-11-17T14:48:19.432Z,57.17
2022-11-17T14:50:47.214Z,57.46
2022-11-17T14:53:14.215Z,58.80
2022-11-17T14:55:41.124Z,59.80
2022-11-17T14:58:10.034Z,58.72
2022-11-17T15:00:37.157Z,56.41
2022-11-17T15:03:04.170Z,56.55
2022-11-17T15:05:31.168Z,58.13
2022-11-17T15:07:58.089Z,58.64
2022-11-17T15:10:25.026Z,60.25
2022-11-17T15:12:51.975Z,60.05
2022-11-17T15:15:19.000Z,62.05
2022-11-17T15:17:45.921Z,64.18
2022-11-17T15:20:12.886Z,62.16
2022-11-17T15:22:39.794Z,64.66
2022-11-17T15:25:08.135Z,64.70
2022-11-17T15:27:35.009Z,64.36
2022-11-17T15:30:02.241Z,63.94
2022-11-17T15:32:29.185Z,65.67
2022-11-17T15:34:56.103Z,66.41
2022-11-17T15:37:23.018Z,67.89
2022-11-17T15:39:49.929Z,65.21
2022-11-17T15:42:16.856Z,67.90
2022-11-17T15:44:43.820Z,65.93
2022-11-17T15:47:10.771Z,68.49
2022-11-17T15:49:37.643Z,75.09
2022-11-17T15:52:04.672Z,78.06
2022-11-17T15:54:31.572Z,77.05
2022-11-17T15:57:00.715Z,75.64
2022-11-17T15:59:27.588Z,80.09
2022-11-17T16:01:54.508Z,79.22
2022-11-17T16:04:21.813Z,79.87
2022-11-17T16:06:49.011Z,77.83
2022-11-17T16:09:16.704Z,76.61
2022-11-17T16:11:43.984Z,80.79
2022-11-17T16:14:11.883Z,80.08
2022-11-17T16:16:39.352Z,75.53
2022-11-17T16:19:06.693Z,73.92
2022-11-17T16:21:33.959Z,73.67
2022-11-17T16:24:02.441Z,73.02
2022-11-17T16:26:30.188Z,73.75
2022-11-17T16:28:58.776Z,70.84
2022-11-17T16:31:30.878Z,70.22
2022-11-17T16:34:00.108Z,68.96
2022-11-17T16:36:36.316Z,65.60
2022-11-17T16:39:05.678Z,65.62
2022-11-17T16:41:37.378Z,65.63
2022-11-17T16:44:08.793Z,64.83
2022-11-17T16:46:36.215Z,65.29
2022-11-17T16:49:05.979Z,65.54
2022-11-17T16:51:33.328Z,62.55
2022-11-17T16:54:03.060Z,63.00
2022-11-17T16:56:30.286Z,64.11
2022-11-17T16:58:57.598Z,65.44
2022-11-17T17:01:30.606Z,66.52
2022-11-17T17:04:01.681Z,66.32
2022-11-17T17:06:29.612Z,66.01
2022-11-17T17:08:58.054Z,65.40
2022-11-17T17:11:25.190Z,65.92
2022-11-17T17:13:52.248Z,65.68
2022-11-17T17:16:20.072Z,66.04
2022-11-17T17:18:47.007Z,63.66
2022-11-17T17:21:17.387Z,61.91
2022-11-17T17:23:45.816Z,63.16
2022-11-17T17:26:16.850Z,62.85
2022-11-17T17:28:44.915Z,63.31
2022-11-17T17:31:21.073Z,62.77
2022-11-17T17:33:50.407Z,59.73
2022-11-17T17:36:22.433Z,62.91
2022-11-17T17:38:55.346Z,62.08
2022-11-17T17:41:26.247Z,62.07
2022-11-17T17:44:03.774Z,58.42
2022-11-17T17:46:32.114Z,59.15
2022-11-17T17:48:59.165Z,61.61
2022-11-17T17:51:27.865Z,61.56
2022-11-17T17:53:56.130Z,61.71
2022-11-17T17:56:23.713Z,59.90
2022-11-17T17:58:51.994Z,59.61
2022-11-17T18:01:23.185Z,58.11
2022-11-17T18:03:51.791Z,59.15
2022-11-17T18:06:21.151Z,59.04
2022-11-17T18:08:50.535Z,58.67
2022-11-17T18:11:20.688Z,58.33
2022-11-17T18:13:49.328Z,57.90
2022-11-17T18:16:22.121Z,54.94
2022-11-17T18:18:49.426Z,55.58
2022-11-17T18:21:20.198Z,54.83
2022-11-17T18:23:47.164Z,56.13
2022-11-17T18:26:20.360Z,60.91
2022-11-17T18:29:07.756Z,58.92
2022-11-17T18:31:36.505Z,60.57
2022-11-17T18:34:09.243Z,59.87
2022-11-17T18:36:36.265Z,62.09
2022-11-17T18:39:03.770Z,58.93
2022-11-17T18:41:32.369Z,58.17
2022-11-17T18:43:59.295Z,57.27
2022-11-17T18:46:28.891Z,58.08
2022-11-17T18:48:56.886Z,58.98
2022-11-17T18:51:29.268Z,56.86
2022-11-17T18:53:57.902Z,60.16
2022-11-17T18:56:32.051Z,60.42
2022-11-17T18:58:59.506Z,59.58
2022-11-17T19:01:30.486Z,60.53
2022-11-17T19:04:00.905Z,61.00
2022-11-17T19:06:28.749Z,61.02
2022-11-17T19:08:57.595Z,63.14
2022-11-17T19:11:24.571Z,63.45
2022-11-17T19:13:52.428Z,60.46
2022-11-17T19:16:22.168Z,61.14
2022-11-17T19:18:52.553Z,63.49
2022-11-17T19:21:26.651Z,61.99
2022-11-17T19:23:55.116Z,62.08
2022-11-17T19:26:26.790Z,62.44
2022-11-17T19:28:58.248Z,61.65
2022-11-17T19:31:25.812Z,64.07
2022-11-17T19:33:53.537Z,64.02
2022-11-17T19:36:22.714Z,68.26
2022-11-17T19:38:51.171Z,72.61
2022-11-17T19:41:25.588Z,73.92
2022-11-17T19:43:56.876Z,73.11
2022-11-17T19:46:25.271Z,75.79
2022-11-17T19:48:52.525Z,77.36
2022-11-17T19:51:27.260Z,76.25
2022-11-17T19:53:56.195Z,75.20
2022-11-17T19:56:24.378Z,73.50
2022-11-17T19:58:52.181Z,74.19
2022-11-17T20:01:21.307Z,72.90
2022-11-17T20:03:48.740Z,71.46
2022-11-17T20:06:18.099Z,70.62
2022-11-17T20:08:45.338Z,70.49
2022-11-17T20:11:14.861Z,69.42
2022-11-17T20:13:41.861Z,68.90
2022-11-17T20:16:15.253Z,69.83
2022-11-17T20:18:43.526Z,69.06
2022-11-17T20:21:11.317Z,71.61
2022-11-17T20:23:39.463Z,73.25
2022-11-17T20:26:08.798Z,72.93
2022-11-17T20:28:36.643Z,73.03
2022-11-17T20:31:17.285Z,76.51
2022-11-17T20:33:44.271Z,76.17
2022-11-17T20:36:19.593Z,78.86
2022-11-17T20:39:07.053Z,78.93
2022-11-17T20:41:34.594Z,77.91
2022-11-17T20:44:03.329Z,75.50
2022-11-17T20:46:30.422Z,76.81
2022-11-17T20:48:57.327Z,77.24
2022-11-17T20:51:25.398Z,78.16
2022-11-17T20:53:52.663Z,79.81
2022-11-17T20:56:20.243Z,80.45
2022-11-17T20:58:47.246Z,81.08
2022-11-17T21:01:16.560Z,81.16
2022-11-17T21:03:44.203Z,80.20
2022-11-17T21:06:11.579Z,80.40
2022-11-17T21:08:40.027Z,79.65
2022-11-17T21:11:09.763Z,79.49
2022-11-17T21:13:37.683Z,79.69
2022-11-17T21:16:12.582Z,78.19
2022-11-17T21:18:45.226Z,78.92
2022-11-17T21:21:12.629Z,79.37
2022-11-17T21:23:40.552Z,79.96
2022-11-17T21:26:13.103Z,81.50
2022-11-17T21:28:41.121Z,81.59
2022-11-17T21:31:12.059Z,83.12
2022-11-17T21:33:39.602Z,84.07
2022-11-17T21:36:15.924Z,81.57
2022-11-17T21:38:43.809Z,80.44
2022-11-17T21:41:32.610Z,76.94
2022-11-17T21:44:01.107Z,76.59
2022-11-17T21:46:30.121Z,78.17
2022-11-17T21:48:58.194Z,80.20
2022-11-17T21:51:28.203Z,83.26
2022-11-17T21:53:57.664Z,82.00
2022-11-17T21:56:27.056Z,81.52
2022-11-17T21:59:01.104Z,78.16
2022-11-17T22:01:29.105Z,79.44
2022-11-17T22:03:56.244Z,80.91
2022-11-17T22:06:24.092Z,83.34
2022-11-17T22:08:51.370Z,83.30
2022-11-17T22:11:35.600Z,84.35
2022-11-17T22:14:11.967Z,85.20
2022-11-17T22:16:43.653Z,85.96
2022-11-17T22:19:11.468Z,86.75
2022-11-17T22:21:38.992Z,87.41
2022-11-17T22:24:07.977Z,89.61
2022-11-17T22:26:38.636Z,89.14
2022-11-17T22:29:08.700Z,89.07
2022-11-17T22:31:35.594Z,86.08
2022-11-17T22:34:02.888Z,87.53
2022-11-17T22:36:29.821Z,88.40
2022-11-17T22:38:56.730Z,89.07
2022-11-17T22:41:23.931Z,87.99
2022-11-17T22:43:52.066Z,89.56
2022-11-17T22:46:19.983Z,91.68
2022-11-17T22:48:47.463Z,90.37
2022-11-17T22:51:34.750Z,90.62
2022-11-17T22:54:01.693Z,90.79
2022-11-17T22:56:28.570Z,91.10
2022-11-17T22:58:59.487Z,91.58
2022-11-17T23:01:26.508Z,90.83
2022-11-17T23:03:53.522Z,92.77
2022-11-17T23:06:20.556Z,94.62
2022-11-17T23:08:47.486Z,92.19
2022-11-17T23:11:36.105Z,90.65
2022-11-17T23:14:01.653Z,87.72
2022-11-17T23:16:28.589Z,85.63
2022-11-17T23:18:56.551Z,85.84
2022-11-17T23:21:23.781Z,84.90
2022-11-17T23:23:51.142Z,84.65
2022-11-17T23:26:18.286Z,83.16
2022-11-17T23:28:45.512Z,80.13
2022-11-17T23:31:16.325Z,78.98
2022-11-17T23:33:45.378Z,75.55
2022-11-17T23:36:17.127Z,76.48
2022-11-17T23:38:44.474Z,75.16
2022-11-17T23:41:13.446Z,73.84
2022-11-17T23:43:40.894Z,73.01
2022-11-17T23:46:11.644Z,72.61
2022-11-17T23:48:38.595Z,73.49
2022-11-17T23:51:07.605Z,73.25
2022-11-17T23:53:34.978Z,74.30
2022-11-17T23:56:02.386Z,72.36
2022-11-17T23:58:29.608Z,71.55
